Time,TemperatureF,DewpointF,PressureIn,WindDirection,WindDirectionDegrees,WindSpeedMPH,WindSpeedGustMPH,Humidity,HourlyPrecipIn,Conditions,Clouds,dailyrainin,SolarRadiationWatts/m^2,SoftwareType,DateUTC
2013-08-13 00:42:00,59.0,37.0,-100.00,North,6,6.0,11.0,43,-99.99,,,0.01,0.000000,,2013-08-13 06:42:00,
2013-08-13 01:42:00,59.0,38.0,-100.00,North,357,6.0,8.0,45,0.00,,,0.01,0.000000,,2013-08-13 07:42:00,
2013-08-13 01:52:00,59.0,38.0,-100.00,North,357,6.0,8.0,45,0.00,,,0.01,0.000000,,2013-08-13 07:52:00,
2013-08-13 02:01:00,59.0,38.0,-100.00,North,357,6.0,8.0,45,0.00,,,0.01,0.000000,,2013-08-13 08:01:00,
2013-08-13 02:42:00,58.0,37.0,-100.00,North,10,9.0,10.0,46,0.00,,,0.01,0.000000,,2013-08-13 08:42:00,
2013-08-13 02:52:00,58.0,37.0,-100.00,North,10,9.0,10.0,46,0.00,,,0.01,0.000000,,2013-08-13 08:52:00,
2013-08-13 03:01:00,58.0,37.0,-100.00,North,10,9.0,10.0,46,0.00,,,0.01,0.000000,,2013-08-13 09:01:00,
2013-08-13 03:43:00,59.0,37.0,-100.00,North,356,6.0,9.0,43,0.00,,,0.01,0.000000,,2013-08-13 09:43:00,
2013-08-13 03:53:00,59.0,37.0,-100.00,North,356,6.0,9.0,43,0.00,,,0.01,0.000000,,2013-08-13 09:53:00,
2013-08-13 04:03:00,59.0,37.0,-100.00,North,356,6.0,9.0,43,0.00,,,0.01,0.000000,,2013-08-13 10:03:00,
2013-08-13 04:43:00,57.0,37.0,-100.00,SW,235,4.0,6.0,47,-99.99,,,0.01,0.000000,,2013-08-13 10:43:00,
2013-08-13 05:42:00,56.0,37.0,-100.00,ESE,110,4.0,6.0,48,-99.99,,,0.01,0.000000,,2013-08-13 11:42:00,
2013-08-13 06:42:00,55.0,35.0,-100.00,NNE,26,5.0,7.0,47,-99.99,,,0.01,0.000000,,2013-08-13 12:42:00,
2013-08-13 08:42:00,56.0,37.0,-100.00,SSW,208,6.0,12.0,48,-99.99,,,0.01,139.000000,,2013-08-13 14:42:00,
2013-08-13 09:44:00,57.0,38.0,-100.00,SW,221,8.0,11.0,48,0.00,,,0.01,235.000000,,2013-08-13 15:44:00,
2013-08-13 09:54:00,57.0,38.0,-100.00,SW,221,8.0,11.0,48,0.00,,,0.01,235.000000,,2013-08-13 15:54:00,
2013-08-13 10:03:00,57.0,38.0,-100.00,SW,221,8.0,11.0,48,0.00,,,0.01,235.000000,,2013-08-13 16:03:00,
2013-08-13 10:45:00,56.0,40.0,-100.00,SSW,213,10.0,13.0,55,0.00,,,0.01,187.000000,,2013-08-13 16:45:00,
2013-08-13 10:54:00,56.0,40.0,-100.00,SSW,213,10.0,13.0,55,0.00,,,0.01,187.000000,,2013-08-13 16:54:00,
2013-08-13 11:05:00,56.0,40.0,-100.00,SSW,213,10.0,13.0,55,0.00,,,0.01,187.000000,,2013-08-13 17:05:00,
2013-08-13 11:46:00,-999.0,-99.9,-100.00,SSW,211,4.0,11.0,-999,0.00,,,0.01,620.000000,,2013-08-13 17:46:00,
2013-08-13 11:56:00,66.0,39.0,-100.00,SSW,211,4.0,11.0,37,0.00,,,0.01,620.000000,,2013-08-13 17:56:00,
2013-08-13 12:05:00,66.0,39.0,-100.00,SSW,211,4.0,11.0,37,0.00,,,0.01,620.000000,,2013-08-13 18:05:00,
2013-08-13 12:44:00,72.0,40.0,-100.00,North,355,3.0,9.0,31,0.00,,,0.01,848.000000,,2013-08-13 18:44:00,
2013-08-13 12:56:00,72.0,40.0,-100.00,North,355,3.0,9.0,31,0.00,,,0.01,848.000000,,2013-08-13 18:56:00,
2013-08-13 13:04:00,72.0,40.0,-100.00,North,355,3.0,9.0,31,0.00,,,0.01,848.000000,,2013-08-13 19:04:00,
2013-08-13 13:44:00,73.0,38.0,-100.00,SW,219,8.0,15.0,28,0.00,,,-99.99,980.000000,,2013-08-13 19:44:00,
2013-08-13 13:55:00,73.0,38.0,-100.00,SW,219,8.0,15.0,28,0.00,,,-99.99,980.000000,,2013-08-13 19:55:00,
2013-08-13 14:04:00,73.0,38.0,-100.00,SW,219,8.0,15.0,28,0.00,,,-99.99,980.000000,,2013-08-13 20:04:00,
2013-08-13 14:45:00,73.0,34.0,-100.00,South,188,11.0,20.0,24,0.00,,,0.01,948.000000,,2013-08-13 20:45:00,
2013-08-13 14:53:00,73.0,34.0,-100.00,South,188,11.0,20.0,24,0.00,,,0.01,948.000000,,2013-08-13 20:53:00,
2013-08-13 15:01:00,73.0,34.0,-100.00,South,188,11.0,20.0,24,0.00,,,0.01,948.000000,,2013-08-13 21:01:00,
2013-08-13 15:46:00,74.0,35.0,-100.00,WSW,239,7.0,18.0,24,0.00,,,0.01,901.000000,,2013-08-13 21:46:00,
2013-08-13 15:54:00,74.0,35.0,-100.00,WSW,239,7.0,18.0,24,0.00,,,0.01,901.000000,,2013-08-13 21:54:00,
2013-08-13 16:03:00,74.0,35.0,-100.00,WSW,239,7.0,18.0,24,0.00,,,0.01,901.000000,,2013-08-13 22:03:00,
2013-08-13 16:50:00,74.0,35.0,-100.00,West,274,6.0,22.0,24,0.00,,,0.01,614.000000,,2013-08-13 22:50:00,
2013-08-13 16:56:00,74.0,35.0,-100.00,West,274,6.0,22.0,24,0.00,,,0.01,614.000000,,2013-08-13 22:56:00,
2013-08-13 17:03:00,74.0,35.0,-100.00,West,274,6.0,22.0,24,0.00,,,0.01,614.000000,,2013-08-13 23:03:00,
2013-08-13 17:47:00,71.0,32.0,-100.00,NW,304,8.0,16.0,24,0.00,,,0.01,267.000000,,2013-08-13 23:47:00,
2013-08-13 17:57:00,71.0,32.0,-100.00,NW,304,8.0,16.0,24,0.00,,,0.01,267.000000,,2013-08-13 23:57:00,
2013-08-13 18:03:00,71.0,32.0,-100.00,NW,304,8.0,16.0,24,0.00,,,0.01,267.000000,,2013-08-14 00:03:00,
2013-08-13 18:42:00,64.0,40.0,-100.00,SSW,192,20.0,31.0,42,0.00,,,0.00,76.000000,,2013-08-14 00:42:00,
2013-08-13 18:52:00,64.0,40.0,-100.00,SSW,192,20.0,31.0,42,0.00,,,0.00,76.000000,,2013-08-14 00:52:00,
2013-08-13 19:01:00,64.0,40.0,-100.00,SSW,192,20.0,31.0,42,0.00,,,0.00,76.000000,,2013-08-14 01:01:00,
2013-08-13 20:42:00,63.0,38.0,-100.00,North,351,5.0,10.0,39,-99.99,,,0.03,112.000000,,2013-08-14 02:42:00,
2013-08-13 20:52:00,63.0,38.0,-100.00,North,351,5.0,10.0,39,-99.99,,,0.03,112.000000,,2013-08-14 02:52:00,
2013-08-13 21:01:00,63.0,38.0,-100.00,North,351,5.0,10.0,39,-99.99,,,0.03,112.000000,,2013-08-14 03:01:00,
2013-08-13 21:43:00,61.0,39.0,-100.00,North,349,5.0,9.0,44,0.00,,,0.03,25.000000,,2013-08-14 03:43:00,
2013-08-13 21:53:00,61.0,39.0,-100.00,North,349,5.0,9.0,44,0.00,,,0.03,25.000000,,2013-08-14 03:53:00,
2013-08-13 22:03:00,61.0,39.0,-100.00,North,349,5.0,9.0,44,0.00,,,0.03,25.000000,,2013-08-14 04:03:00,
2013-08-13 22:42:00,59.0,38.0,-100.00,NNE,19,5.0,6.0,46,0.00,,,0.03,0.000000,,2013-08-14 04:42:00,
2013-08-13 22:52:00,59.0,38.0,-100.00,NNE,19,5.0,6.0,46,0.00,,,0.03,0.000000,,2013-08-14 04:52:00,
2013-08-13 23:02:00,59.0,38.0,-100.00,NNE,19,5.0,6.0,46,0.00,,,0.03,0.000000,,2013-08-14 05:02:00,
2013-08-13 23:42:00,58.0,35.0,-100.00,North,6,4.0,9.0,42,0.00,,,0.03,0.000000,,2013-08-14 05:42:00,
2013-08-13 23:52:00,58.0,35.0,-100.00,North,6,4.0,9.0,42,0.00,,,0.03,0.000000,,2013-08-14 05:52:00,